CA-0600 weather

CLOSED Rivère l'Acadie Water Aerodrome
Carignan, Quebec, Canada

Public forecast

Using degrees Celsius for public forecast. Weather courtesy of forecast.io.

Closest aviation weather report (METAR) to Rivère l'Acadie Water Aerodrome

Closest report is Montréal / Saint-Hubert Airport, 5.0 nm (9.4 km) WNW. Retrieved 2020/07/04 21:00 UTC (33 minutes ago):

CYHU 042100Z AUTO VRB05KT 9SM CLR 30/08 A2987 RMK SLP116 DENSITY ALT 1800FT

Closest aviation forecast (TAF) to Rivère l'Acadie Water Aerodrome

Closest forecast is Montréal / Saint-Hubert Airport, 5.0 nm (9.4 km) WNW. Retrieved 2020/07/04 18:42 UTC (3 hours ago):

TAF CYHU 041738Z 0418/0518 32008KT P6SM FEW250 FM042200 26006KT P6SM SCT150 BECMG 0502/0504 28005KT FM051100 28008KT P6SM BKN070 FM051700 28008KT P6SM BKN050 RMK FCST BASED ON AUTO OBS NXT FCST BY 050000Z